createdAt,value
2019-05-05T00:01:51.003Z,99.90
2019-05-05T00:04:28.051Z,99.90
2019-05-05T00:06:57.403Z,99.90
2019-05-05T00:09:26.805Z,99.90
2019-05-05T00:12:06.929Z,99.90
2019-05-05T00:14:37.903Z,99.90
2019-05-05T00:17:11.834Z,99.90
2019-05-05T00:19:41.243Z,99.90
2019-05-05T00:22:10.603Z,99.90
2019-05-05T00:24:39.944Z,99.90
2019-05-05T00:27:09.266Z,99.90
2019-05-05T00:29:38.695Z,99.90
2019-05-05T00:32:08.099Z,99.90
2019-05-05T00:34:37.859Z,99.90
2019-05-05T00:37:07.190Z,99.90
2019-05-05T00:39:36.624Z,99.90
2019-05-05T00:42:06.027Z,99.90
2019-05-05T00:44:35.450Z,99.90
2019-05-05T00:47:15.522Z,99.90
2019-05-05T00:49:49.302Z,99.90
2019-05-05T00:52:17.568Z,99.90
2019-05-05T00:54:46.995Z,99.90
2019-05-05T00:57:16.398Z,99.90
2019-05-05T00:59:45.753Z,99.90
2019-05-05T01:02:22.556Z,99.90
2019-05-05T01:04:55.104Z,99.90
2019-05-05T01:07:24.837Z,99.90
2019-05-05T01:09:54.393Z,99.90
2019-05-05T01:12:24.476Z,99.90
2019-05-05T01:14:55.239Z,99.90
2019-05-05T01:17:25.419Z,99.90
2019-05-05T01:20:03.454Z,99.90
2019-05-05T01:22:26.074Z,99.90
2019-05-05T01:24:55.627Z,99.90
2019-05-05T01:27:25.562Z,99.90
2019-05-05T01:29:55.045Z,99.90
2019-05-05T01:32:29.126Z,99.90
2019-05-05T01:34:58.493Z,99.90
2019-05-05T01:37:35.220Z,99.90
2019-05-05T01:40:14.285Z,99.90
2019-05-05T01:42:44.665Z,99.90
2019-05-05T01:45:14.926Z,99.90
2019-05-05T01:47:45.313Z,99.90
2019-05-05T01:50:20.645Z,99.90
2019-05-05T01:52:46.103Z,99.90
2019-05-05T01:55:15.535Z,99.90
2019-05-05T01:57:45.298Z,99.90
2019-05-05T02:00:15.067Z,99.90
2019-05-05T02:02:45.047Z,99.90
2019-05-05T02:05:14.953Z,99.90
2019-05-05T02:07:45.023Z,99.90
2019-05-05T02:10:15.431Z,99.90
2019-05-05T02:12:44.944Z,99.90
2019-05-05T02:15:15.125Z,99.90
2019-05-05T02:17:44.764Z,99.90
2019-05-05T02:20:40.066Z,99.90
2019-05-05T02:23:10.910Z,99.90
2019-05-05T02:25:40.328Z,99.90
2019-05-05T02:28:09.805Z,99.90
2019-05-05T02:30:50.334Z,99.90
2019-05-05T02:33:20.807Z,99.90
2019-05-05T02:35:50.230Z,99.90
2019-05-05T02:38:19.727Z,99.90
2019-05-05T02:40:50.419Z,99.90
2019-05-05T02:43:20.471Z,99.90
2019-05-05T02:46:05.504Z,99.90
2019-05-05T02:48:35.745Z,99.90
2019-05-05T02:51:07.180Z,99.90
2019-05-05T02:53:44.696Z,99.90
2019-05-05T02:56:23.792Z,99.90
2019-05-05T02:58:55.911Z,99.90
2019-05-05T03:01:30.136Z,99.90
2019-05-05T03:04:00.855Z,99.90
2019-05-05T03:06:30.347Z,99.90
2019-05-05T03:09:00.923Z,99.90
2019-05-05T03:11:34.328Z,99.90
2019-05-05T03:14:06.827Z,99.90
2019-05-05T03:16:39.168Z,99.90
2019-05-05T03:19:10.243Z,99.90
2019-05-05T03:21:40.252Z,99.90
2019-05-05T03:24:09.991Z,99.90
2019-05-05T03:26:40.988Z,99.90
2019-05-05T03:29:15.100Z,99.90
2019-05-05T03:31:46.084Z,99.90
2019-05-05T03:34:16.665Z,99.90
2019-05-05T03:36:46.632Z,99.90
2019-05-05T03:39:23.745Z,99.90
2019-05-05T03:42:01.070Z,99.90
2019-05-05T03:44:35.258Z,99.90
2019-05-05T03:47:05.158Z,99.90
2019-05-05T03:49:34.931Z,99.90
2019-05-05T03:52:04.915Z,99.90
2019-05-05T03:54:34.876Z,99.90
2019-05-05T03:57:07.766Z,99.90
2019-05-05T03:59:40.274Z,99.90
2019-05-05T04:02:14.061Z,99.90
2019-05-05T04:04:44.216Z,99.90
2019-05-05T04:07:14.055Z,99.90
2019-05-05T04:09:43.991Z,99.90
2019-05-05T04:12:14.186Z,99.90
2019-05-05T04:14:45.360Z,99.90
2019-05-05T04:17:28.304Z,99.90
2019-05-05T04:20:15.241Z,99.90
2019-05-05T04:22:44.605Z,99.90
2019-05-05T04:25:14.020Z,99.90
2019-05-05T04:27:44.495Z,99.90
2019-05-05T04:30:14.404Z,99.90
2019-05-05T04:32:44.337Z,99.90
2019-05-05T04:35:14.198Z,99.90
2019-05-05T04:37:43.913Z,99.90
2019-05-05T04:40:14.857Z,99.90
2019-05-05T04:42:44.347Z,99.90
2019-05-05T04:45:14.932Z,99.90
2019-05-05T04:47:48.912Z,99.90
2019-05-05T04:50:20.098Z,99.90
2019-05-05T04:52:51.442Z,99.90
2019-05-05T04:55:20.838Z,99.90
2019-05-05T04:57:50.215Z,99.90
2019-05-05T05:00:19.682Z,99.90
2019-05-05T05:02:56.688Z,99.90
2019-05-05T05:05:30.270Z,99.90
2019-05-05T05:07:59.644Z,99.90
2019-05-05T05:10:28.982Z,99.90
2019-05-05T05:12:58.374Z,99.90
2019-05-05T05:15:27.699Z,99.90
2019-05-05T05:20:48.492Z,99.90
2019-05-05T05:23:17.918Z,99.90
2019-05-05T05:25:47.257Z,99.90
2019-05-05T05:28:16.620Z,99.90
2019-05-05T05:30:46.015Z,99.90
2019-05-05T05:33:15.444Z,99.90
2019-05-05T05:35:44.849Z,99.90
2019-05-05T05:38:14.291Z,99.90
2019-05-05T05:40:48.238Z,99.90
2019-05-05T05:43:19.242Z,99.90
2019-05-05T05:45:56.310Z,99.90
2019-05-05T05:48:27.311Z,98.80
2019-05-05T05:51:00.964Z,98.70
2019-05-05T05:53:30.329Z,98.00
2019-05-05T05:55:59.657Z,97.70
2019-05-05T05:58:28.989Z,96.90
2019-05-05T06:00:58.617Z,96.40
2019-05-05T06:03:28.020Z,95.80
2019-05-05T06:05:57.379Z,95.70
2019-05-05T06:08:26.716Z,94.70
2019-05-05T06:10:56.076Z,94.40
2019-05-05T06:13:25.788Z,94.40
2019-05-05T06:15:55.142Z,94.30
2019-05-05T06:18:24.519Z,94.60
2019-05-05T06:20:53.956Z,94.80
2019-05-05T06:23:24.075Z,94.10
2019-05-05T06:25:55.189Z,94.00
2019-05-05T06:28:24.672Z,94.00
2019-05-05T06:30:54.666Z,94.10
2019-05-05T06:33:24.313Z,94.40
2019-05-05T06:35:53.794Z,94.40
2019-05-05T06:38:24.123Z,94.30
2019-05-05T06:41:11.696Z,93.90
2019-05-05T06:43:44.114Z,92.50
2019-05-05T06:46:15.339Z,92.60
2019-05-05T06:48:44.753Z,92.50
2019-05-05T06:51:14.194Z,92.80
2019-05-05T06:53:43.708Z,93.50
2019-05-05T06:56:14.550Z,92.70
2019-05-05T06:58:44.818Z,92.10
2019-05-05T07:01:14.478Z,92.60
2019-05-05T07:03:44.023Z,92.60
2019-05-05T07:06:14.648Z,91.20
2019-05-05T07:08:44.108Z,90.90
2019-05-05T07:11:14.505Z,90.10
2019-05-05T07:13:44.411Z,90.10
2019-05-05T07:16:15.034Z,89.20
2019-05-05T07:18:44.736Z,87.20
2019-05-05T07:21:14.454Z,86.90
2019-05-05T07:23:44.550Z,87.60
2019-05-05T07:26:14.537Z,85.90
2019-05-05T07:28:45.145Z,85.80
2019-05-05T07:31:14.556Z,86.20
2019-05-05T07:33:44.730Z,86.20
2019-05-05T07:36:34.230Z,86.50
2019-05-05T07:39:05.572Z,85.80
2019-05-05T07:41:35.566Z,86.30
2019-05-05T07:44:05.137Z,82.40
2019-05-05T07:46:34.778Z,81.40
2019-05-05T07:49:04.187Z,81.60
2019-05-05T07:51:33.784Z,82.20
2019-05-05T07:54:03.921Z,83.60
2019-05-05T07:56:34.352Z,85.00
2019-05-05T07:59:04.151Z,83.90
2019-05-05T08:01:33.858Z,82.70
2019-05-05T08:04:04.490Z,83.60
2019-05-05T08:06:34.153Z,84.30
2019-05-05T08:09:05.558Z,83.40
2019-05-05T08:11:34.919Z,81.00
2019-05-05T08:14:04.314Z,80.60
2019-05-05T08:16:41.288Z,81.80
2019-05-05T08:19:27.221Z,82.00
2019-05-05T08:21:56.648Z,80.60
2019-05-05T08:24:30.330Z,79.10
2019-05-05T08:27:01.466Z,78.50
2019-05-05T08:29:34.381Z,79.20
2019-05-05T08:32:23.785Z,77.50
2019-05-05T08:34:59.880Z,74.00
2019-05-05T08:37:24.217Z,69.20
2019-05-05T08:39:54.060Z,69.60
2019-05-05T08:42:24.687Z,67.10
2019-05-05T08:44:54.213Z,66.40
2019-05-05T08:47:24.610Z,66.10
2019-05-05T08:49:54.763Z,67.70
2019-05-05T08:52:24.194Z,65.40
2019-05-05T08:54:54.264Z,66.90
2019-05-05T08:57:23.762Z,68.60
2019-05-05T08:59:54.493Z,70.40
2019-05-05T09:02:24.210Z,69.80
2019-05-05T09:04:53.887Z,67.70
2019-05-05T09:07:24.321Z,66.80
2019-05-05T09:09:54.676Z,65.20
2019-05-05T09:12:24.209Z,65.10
2019-05-05T09:14:54.013Z,61.90
2019-05-05T09:17:24.320Z,62.90
2019-05-05T09:19:54.548Z,60.40
2019-05-05T09:22:24.574Z,60.50
2019-05-05T09:25:04.762Z,61.60
2019-05-05T09:27:38.772Z,63.50
2019-05-05T09:30:14.123Z,65.50
2019-05-05T09:32:43.842Z,68.90
2019-05-05T09:35:13.972Z,71.60
2019-05-05T09:37:44.412Z,72.70
2019-05-05T09:40:18.042Z,71.40
2019-05-05T09:42:47.369Z,73.50
2019-05-05T09:45:16.860Z,75.20
2019-05-05T09:47:46.293Z,75.20
2019-05-05T09:50:15.779Z,73.50
2019-05-05T09:52:45.114Z,72.60
2019-05-05T09:55:14.643Z,70.30
2019-05-05T09:57:44.143Z,69.40
2019-05-05T10:00:14.828Z,67.20
2019-05-05T10:02:44.720Z,66.00
2019-05-05T10:05:15.743Z,63.60
2019-05-05T10:07:45.210Z,63.00
2019-05-05T10:10:15.218Z,61.80
2019-05-05T10:12:44.746Z,60.80
2019-05-05T10:15:14.615Z,62.40
2019-05-05T10:17:44.408Z,65.00
2019-05-05T10:20:14.608Z,66.80
2019-05-05T10:22:44.088Z,68.80
2019-05-05T10:25:34.178Z,66.00
2019-05-05T10:28:04.396Z,67.00
2019-05-05T10:30:34.911Z,66.70
2019-05-05T10:33:04.384Z,65.70
2019-05-05T10:35:34.570Z,66.20
2019-05-05T10:38:04.153Z,67.60
2019-05-05T10:40:34.647Z,69.90
2019-05-05T10:43:04.606Z,73.70
2019-05-05T10:45:34.262Z,78.70
2019-05-05T10:48:05.265Z,85.70
2019-05-05T10:50:34.999Z,91.00
2019-05-05T10:53:04.807Z,90.10
2019-05-05T10:55:35.945Z,90.60
2019-05-05T10:58:05.628Z,90.40
2019-05-05T11:00:54.357Z,90.80
2019-05-05T11:03:23.792Z,90.20
2019-05-05T11:05:53.794Z,90.60
2019-05-05T11:08:24.539Z,91.20
2019-05-05T11:10:53.977Z,90.70
2019-05-05T11:13:24.035Z,88.00
2019-05-05T11:15:54.739Z,88.40
2019-05-05T11:18:24.364Z,86.70
2019-05-05T11:20:54.889Z,84.90
2019-05-05T11:23:25.029Z,79.80
2019-05-05T11:25:54.658Z,75.30
2019-05-05T11:28:24.168Z,75.20
2019-05-05T11:30:54.071Z,72.60
2019-05-05T11:33:25.049Z,73.50
2019-05-05T11:35:58.580Z,69.10
2019-05-05T11:38:28.079Z,65.80
2019-05-05T11:40:57.767Z,68.80
2019-05-05T11:43:27.098Z,63.00
2019-05-05T11:45:56.624Z,60.70
2019-05-05T11:48:26.260Z,62.00
2019-05-05T11:50:55.753Z,58.00
2019-05-05T11:53:25.296Z,59.20
2019-05-05T11:55:55.287Z,58.50
2019-05-05T11:58:25.166Z,58.60
2019-05-05T12:00:54.871Z,54.20
2019-05-05T12:03:24.509Z,54.10
2019-05-05T12:05:53.934Z,54.20
2019-05-05T12:08:23.854Z,54.40
2019-05-05T12:10:55.380Z,53.50
2019-05-05T12:13:24.891Z,52.30
2019-05-05T12:16:01.665Z,54.10
2019-05-05T12:18:31.067Z,53.60
2019-05-05T12:21:00.704Z,52.80
2019-05-05T12:23:30.055Z,52.70
2019-05-05T12:26:17.393Z,52.20
2019-05-05T12:28:48.533Z,52.70
2019-05-05T12:31:24.593Z,52.40
2019-05-05T12:33:54.779Z,53.70
2019-05-05T12:36:25.381Z,53.70
2019-05-05T12:38:54.858Z,53.70
2019-05-05T12:41:24.302Z,53.90
2019-05-05T12:43:54.870Z,51.50
2019-05-05T12:46:29.850Z,52.10
2019-05-05T12:49:00.460Z,51.90
2019-05-05T12:51:31.442Z,51.10
2019-05-05T12:54:00.921Z,50.40
2019-05-05T12:56:34.037Z,51.60
2019-05-05T12:59:05.100Z,51.80
2019-05-05T13:01:38.534Z,51.50
2019-05-05T13:04:07.942Z,53.20
2019-05-05T13:06:37.649Z,52.90
2019-05-05T13:09:08.392Z,51.30
2019-05-05T13:11:37.821Z,50.70
2019-05-05T13:14:07.297Z,51.40
2019-05-05T13:16:36.730Z,51.60
2019-05-05T13:19:07.867Z,50.10
2019-05-05T13:21:44.079Z,50.30
2019-05-05T13:24:20.477Z,47.80
2019-05-05T13:26:51.563Z,46.60
2019-05-05T13:29:20.903Z,46.00
2019-05-05T13:31:50.343Z,45.80
2019-05-05T13:34:19.719Z,45.20
2019-05-05T13:36:49.101Z,44.40
2019-05-05T13:39:18.502Z,43.50
2019-05-05T13:41:47.866Z,42.60
2019-05-05T13:44:24.658Z,42.60
2019-05-05T13:46:54.161Z,41.50
2019-05-05T13:49:25.142Z,41.90
2019-05-05T13:51:54.517Z,42.70
2019-05-05T13:54:24.316Z,43.30
2019-05-05T13:56:53.841Z,43.90
2019-05-05T13:59:25.511Z,43.60
2019-05-05T14:01:54.656Z,44.00
2019-05-05T14:04:23.992Z,46.40
2019-05-05T14:06:54.399Z,47.10
2019-05-05T14:09:23.863Z,47.80
2019-05-05T14:11:53.587Z,47.20
2019-05-05T14:14:24.278Z,46.50
2019-05-05T14:16:54.003Z,46.80
2019-05-05T14:19:24.811Z,45.60
2019-05-05T14:21:54.302Z,43.70
2019-05-05T14:24:25.309Z,44.00
2019-05-05T14:26:54.651Z,44.60
2019-05-05T14:29:41.985Z,44.00
2019-05-05T14:32:13.518Z,43.40
2019-05-05T14:34:44.759Z,43.30
2019-05-05T14:37:34.054Z,43.80
2019-05-05T14:40:05.463Z,42.80
2019-05-05T14:42:34.844Z,42.00
2019-05-05T14:45:06.016Z,41.20
2019-05-05T14:47:35.439Z,41.60
2019-05-05T14:50:06.014Z,41.70
2019-05-05T14:52:35.420Z,42.80
2019-05-05T14:55:07.298Z,41.90
2019-05-05T14:57:36.642Z,42.00
2019-05-05T15:00:13.675Z,43.00
2019-05-05T15:02:43.881Z,42.60
2019-05-05T15:05:31.504Z,42.80
2019-05-05T15:08:02.493Z,41.90
2019-05-05T15:10:48.793Z,42.70
2019-05-05T15:13:20.310Z,41.80
2019-05-05T15:15:49.808Z,41.70
2019-05-05T15:18:19.319Z,41.70
2019-05-05T15:20:51.666Z,40.70
2019-05-05T15:23:19.754Z,41.00
2019-05-05T15:25:49.120Z,39.90
2019-05-05T15:28:18.522Z,39.70
2019-05-05T15:30:47.898Z,39.30
2019-05-05T15:33:17.309Z,40.60
2019-05-05T15:35:46.712Z,41.60
2019-05-05T15:38:16.175Z,40.60
2019-05-05T15:40:48.084Z,40.50
2019-05-05T15:43:16.814Z,41.10
2019-05-05T15:45:46.378Z,41.70
2019-05-05T15:48:15.772Z,39.00
2019-05-05T15:50:45.572Z,40.00
2019-05-05T15:53:15.042Z,39.90
2019-05-05T15:55:44.802Z,40.30
2019-05-05T15:58:14.294Z,40.90
2019-05-05T16:00:44.313Z,42.70
2019-05-05T16:03:13.925Z,42.90
2019-05-05T16:05:43.722Z,43.50
2019-05-05T16:08:16.159Z,41.80
2019-05-05T16:10:46.571Z,43.20
2019-05-05T16:13:16.594Z,43.60
2019-05-05T16:15:47.600Z,42.60
2019-05-05T16:18:24.608Z,42.40
2019-05-05T16:21:07.815Z,43.80
2019-05-05T16:23:39.072Z,44.00
2019-05-05T16:26:08.574Z,43.50
2019-05-05T16:28:37.988Z,44.40
2019-05-05T16:31:07.507Z,44.50
2019-05-05T16:33:36.852Z,43.50
2019-05-05T16:36:06.485Z,43.70
2019-05-05T16:38:36.033Z,43.80
2019-05-05T16:41:05.499Z,43.30
2019-05-05T16:43:34.839Z,40.50
2019-05-05T16:46:04.346Z,40.90
2019-05-05T16:48:34.395Z,40.10
2019-05-05T16:51:05.565Z,40.90
2019-05-05T16:53:35.843Z,40.90
2019-05-05T16:56:14.011Z,41.60
2019-05-05T16:58:45.039Z,42.90
2019-05-05T17:01:16.292Z,44.30
2019-05-05T17:03:46.042Z,44.90
2019-05-05T17:06:15.489Z,45.90
2019-05-05T17:08:44.891Z,46.70
2019-05-05T17:11:15.226Z,47.30
2019-05-05T17:13:55.411Z,47.50
2019-05-05T17:16:44.211Z,47.20
2019-05-05T17:19:15.294Z,47.70
2019-05-05T17:21:53.598Z,47.70
2019-05-05T17:24:23.963Z,47.90
2019-05-05T17:26:54.990Z,47.10
2019-05-05T17:29:24.457Z,46.60
2019-05-05T17:31:54.143Z,46.20
2019-05-05T17:34:24.758Z,45.40
2019-05-05T17:36:54.287Z,45.20
2019-05-05T17:39:25.342Z,44.90
2019-05-05T17:41:56.605Z,45.40
2019-05-05T17:44:27.595Z,45.20
2019-05-05T17:47:11.010Z,44.60
2019-05-05T17:49:56.974Z,43.80
2019-05-05T17:52:44.202Z,43.80
2019-05-05T17:55:15.319Z,44.20
2019-05-05T17:57:44.677Z,44.90
2019-05-05T18:00:14.819Z,45.90
2019-05-05T18:02:44.189Z,46.60
2019-05-05T18:05:14.030Z,47.50
2019-05-05T18:07:45.269Z,48.10
2019-05-05T18:10:17.247Z,48.70
2019-05-05T18:12:48.314Z,48.80
2019-05-05T18:15:35.582Z,49.70
2019-05-05T18:18:05.074Z,50.60
2019-05-05T18:20:34.407Z,51.20
2019-05-05T18:23:03.841Z,52.10
2019-05-05T18:25:34.670Z,53.00
2019-05-05T18:28:15.742Z,53.80
2019-05-05T18:30:35.698Z,54.00
2019-05-05T18:33:05.181Z,54.70
2019-05-05T18:35:34.582Z,55.50
2019-05-05T18:38:04.211Z,56.10
2019-05-05T18:40:33.803Z,56.60
2019-05-05T18:43:04.860Z,56.80
2019-05-05T18:45:35.528Z,57.00
2019-05-05T18:48:05.186Z,57.30
2019-05-05T18:50:34.777Z,57.60
2019-05-05T18:53:04.683Z,58.30
2019-05-05T18:55:34.056Z,59.00
2019-05-05T18:58:05.131Z,59.40
2019-05-05T19:00:48.012Z,59.70
2019-05-05T19:03:35.192Z,60.50
2019-05-05T19:06:06.172Z,61.50
2019-05-05T19:08:37.179Z,61.90
2019-05-05T19:11:06.577Z,62.40
2019-05-05T19:13:35.934Z,63.00
2019-05-05T19:16:05.262Z,63.20
2019-05-05T19:18:34.621Z,63.50
2019-05-05T19:21:05.760Z,64.10
2019-05-05T19:23:35.638Z,64.30
2019-05-05T19:26:07.659Z,65.20
2019-05-05T19:28:44.439Z,65.40
2019-05-05T19:31:07.434Z,65.80
2019-05-05T19:33:36.791Z,66.50
2019-05-05T19:36:06.142Z,67.50
2019-05-05T19:38:35.510Z,69.00
2019-05-05T19:41:04.915Z,69.30
2019-05-05T19:43:36.766Z,69.80
2019-05-05T19:46:07.033Z,69.40
2019-05-05T19:48:36.386Z,68.20
2019-05-05T19:51:07.489Z,67.60
2019-05-05T19:53:36.867Z,67.70
2019-05-05T19:56:06.273Z,67.20
2019-05-05T19:58:36.565Z,67.20
2019-05-05T20:01:06.345Z,67.60
2019-05-05T20:03:35.983Z,68.80
2019-05-05T20:06:05.898Z,70.60
2019-05-05T20:08:40.977Z,72.00
2019-05-05T20:11:06.575Z,74.80
2019-05-05T20:13:35.902Z,77.10
2019-05-05T20:16:09.785Z,79.80
2019-05-05T20:18:39.115Z,80.30
2019-05-05T20:21:08.479Z,82.00
2019-05-05T20:23:37.809Z,81.70
2019-05-05T20:26:07.392Z,82.50
2019-05-05T20:28:36.740Z,85.10
2019-05-05T20:31:06.150Z,90.00
2019-05-05T20:33:46.160Z,91.20
2019-05-05T20:36:17.153Z,92.70
2019-05-05T20:38:48.128Z,93.20
2019-05-05T20:41:19.057Z,94.00
2019-05-05T20:43:48.525Z,95.00
2019-05-05T20:46:17.952Z,95.20
2019-05-05T20:48:47.350Z,95.60
2019-05-05T20:51:16.709Z,95.50
2019-05-05T20:53:49.102Z,95.60
2019-05-05T20:56:17.399Z,95.80
2019-05-05T20:58:46.799Z,96.00
2019-05-05T21:01:16.518Z,96.20
2019-05-05T21:03:45.856Z,96.40
2019-05-05T21:06:15.213Z,96.40
2019-05-05T21:08:44.714Z,96.90
2019-05-05T21:11:14.368Z,96.60
2019-05-05T21:13:45.049Z,96.60
2019-05-05T21:16:14.613Z,96.80
2019-05-05T21:18:43.947Z,96.80
2019-05-05T21:21:15.014Z,96.80
2019-05-05T21:23:46.261Z,96.80
2019-05-05T21:26:17.584Z,97.00
2019-05-05T21:28:47.153Z,97.10
2019-05-05T21:31:16.734Z,97.20
2019-05-05T21:33:46.459Z,97.20
2019-05-05T21:36:16.143Z,97.40
2019-05-05T21:38:45.537Z,97.70
2019-05-05T21:41:14.959Z,98.00
2019-05-05T21:43:44.931Z,98.30
2019-05-05T21:46:14.571Z,98.40
2019-05-05T21:48:46.377Z,98.60
2019-05-05T21:51:35.014Z,99.10
2019-05-05T21:54:23.547Z,99.40
2019-05-05T21:57:14.068Z,99.70
2019-05-05T21:59:54.882Z,99.90
2019-05-05T22:02:15.338Z,99.90
2019-05-05T22:04:44.793Z,99.90
2019-05-05T22:07:14.579Z,99.90
2019-05-05T22:09:44.115Z,99.90
2019-05-05T22:12:13.640Z,99.90
2019-05-05T22:14:43.924Z,99.90
2019-05-05T22:17:14.615Z,99.90
2019-05-05T22:19:58.075Z,99.90
2019-05-05T22:22:29.095Z,99.90
2019-05-05T22:24:58.427Z,99.90
2019-05-05T22:27:27.786Z,99.90
2019-05-05T22:30:09.156Z,99.90
2019-05-05T22:32:28.296Z,99.90
2019-05-05T22:34:57.634Z,99.90
2019-05-05T22:37:26.994Z,99.90
2019-05-05T22:39:56.336Z,99.90
2019-05-05T22:42:25.765Z,99.90
2019-05-05T22:44:55.106Z,99.90
2019-05-05T22:47:24.469Z,99.90
2019-05-05T22:49:54.057Z,99.90
2019-05-05T22:52:25.439Z,99.90
2019-05-05T22:54:54.468Z,99.90
2019-05-05T22:57:24.741Z,99.90
2019-05-05T22:59:54.293Z,99.90
2019-05-05T23:02:25.464Z,99.90
2019-05-05T23:04:59.135Z,99.90
2019-05-05T23:07:34.797Z,99.90
2019-05-05T23:10:04.844Z,99.90
2019-05-05T23:12:35.081Z,99.90
2019-05-05T23:15:08.450Z,99.90
2019-05-05T23:17:43.682Z,99.90
2019-05-05T23:20:24.959Z,99.90
2019-05-05T23:22:56.040Z,99.90
2019-05-05T23:25:27.012Z,99.90
2019-05-05T23:27:56.447Z,99.90
2019-05-05T23:30:38.558Z,99.90
2019-05-05T23:32:57.022Z,99.90
2019-05-05T23:35:26.425Z,99.90
2019-05-05T23:37:55.798Z,99.90
2019-05-05T23:40:28.059Z,99.90
2019-05-05T23:42:57.415Z,99.90
2019-05-05T23:45:26.757Z,99.90
2019-05-05T23:47:56.192Z,99.90
2019-05-05T23:50:25.771Z,99.90
2019-05-05T23:52:55.179Z,99.90
2019-05-05T23:55:24.553Z,99.90
2019-05-05T23:57:54.911Z,99.90
